<?xml version="1.0" encoding="utf-8"?>
<gpx xmlns:xsi="http://www.w3.org/2001/XMLSchema-instance" xmlns:xsd="http://www.w3.org/2001/XMLSchema" version="1.1" creator="Shapelink.com" xmlns="http://www.topografix.com/GPX/1/1" xmlns:gpxtpx="http://www.garmin.com/xmlschemas/TrackPointExtension/v1">
  <metadata>
    <name>Cykling 12.40 km, 2019-08-04</name>
    <desc></desc>
    <author><name>Marian Moron</name></author> 
    <time>2019-08-04T14:09:10Z</time>
  </metadata>
  <trk>
    <name>Cykling 12.40 km, 2019-08-04</name>
    <trkseg>
      <trkpt lat="51.228921130873" lon="4.448294781836">
        <ele>0</ele>
        <time>2019-08-04T14:09:10Z</time>
      </trkpt>
      <trkpt lat="51.228609491831" lon="4.447566310907">
        <ele>0</ele>
        <time>2019-08-04T14:09:39Z</time>
      </trkpt>
      <trkpt lat="51.22820556807" lon="4.447088961702">
        <ele>5.6</ele>
        <time>2019-08-04T14:10:02Z</time>
      </trkpt>
      <trkpt lat="51.228175477049" lon="4.447042693614">
        <ele>5.4</ele>
        <time>2019-08-04T14:10:07Z</time>
      </trkpt>
      <trkpt lat="51.228156366317" lon="4.447045040546">
        <ele>5</ele>
        <time>2019-08-04T14:10:09Z</time>
      </trkpt>
      <trkpt lat="51.227748922158" lon="4.447622553456">
        <ele>0</ele>
        <time>2019-08-04T14:10:36Z</time>
      </trkpt>
      <trkpt lat="51.227413059425" lon="4.448347923082">
        <ele>0</ele>
        <time>2019-08-04T14:10:59Z</time>
      </trkpt>
      <trkpt lat="51.227054817019" lon="4.448979666885">
        <ele>0</ele>
        <time>2019-08-04T14:11:18Z</time>
      </trkpt>
      <trkpt lat="51.226632033983" lon="4.449366323932">
        <ele>0</ele>
        <time>2019-08-04T14:11:39Z</time>
      </trkpt>
      <trkpt lat="51.226598674021" lon="4.449337490196">
        <ele>0</ele>
        <time>2019-08-04T14:11:41Z</time>
      </trkpt>
      <trkpt lat="51.226179746659" lon="4.448968016044">
        <ele>0</ele>
        <time>2019-08-04T14:12:04Z</time>
      </trkpt>
      <trkpt lat="51.225801722969" lon="4.449589114834">
        <ele>0</ele>
        <time>2019-08-04T14:12:22Z</time>
      </trkpt>
      <trkpt lat="51.225258072935" lon="4.449742922699">
        <ele>0</ele>
        <time>2019-08-04T14:12:37Z</time>
      </trkpt>
      <trkpt lat="51.224829171112" lon="4.450132178135">
        <ele>0</ele>
        <time>2019-08-04T14:12:51Z</time>
      </trkpt>
      <trkpt lat="51.224452237069" lon="4.450750259441">
        <ele>0</ele>
        <time>2019-08-04T14:13:03Z</time>
      </trkpt>
      <trkpt lat="51.224154092886" lon="4.451200199833">
        <ele>0</ele>
        <time>2019-08-04T14:13:13Z</time>
      </trkpt>
      <trkpt lat="51.223640198597" lon="4.451330873654">
        <ele>0</ele>
        <time>2019-08-04T14:13:32Z</time>
      </trkpt>
      <trkpt lat="51.223598792011" lon="4.451304973583">
        <ele>0</ele>
        <time>2019-08-04T14:13:37Z</time>
      </trkpt>
      <trkpt lat="51.223607341549" lon="4.451313104026">
        <ele>0</ele>
        <time>2019-08-04T14:13:55Z</time>
      </trkpt>
      <trkpt lat="51.223565599687" lon="4.451305057402">
        <ele>0</ele>
        <time>2019-08-04T14:14:01Z</time>
      </trkpt>
      <trkpt lat="51.223022787843" lon="4.451156949229">
        <ele>0</ele>
        <time>2019-08-04T14:14:18Z</time>
      </trkpt>
      <trkpt lat="51.222468744253" lon="4.451189638639">
        <ele>0</ele>
        <time>2019-08-04T14:14:38Z</time>
      </trkpt>
      <trkpt lat="51.221942947666" lon="4.451475209972">
        <ele>0</ele>
        <time>2019-08-04T14:14:57Z</time>
      </trkpt>
      <trkpt lat="51.221400974012" lon="4.451742676401">
        <ele>0</ele>
        <time>2019-08-04T14:15:14Z</time>
      </trkpt>
      <trkpt lat="51.220834776667" lon="4.451907213098">
        <ele>0</ele>
        <time>2019-08-04T14:15:27Z</time>
      </trkpt>
      <trkpt lat="51.220270171883" lon="4.45202774482">
        <ele>0</ele>
        <time>2019-08-04T14:15:42Z</time>
      </trkpt>
      <trkpt lat="51.219717637035" lon="4.452006957708">
        <ele>0</ele>
        <time>2019-08-04T14:15:55Z</time>
      </trkpt>
      <trkpt lat="51.21913299951" lon="4.452071582157">
        <ele>0</ele>
        <time>2019-08-04T14:16:09Z</time>
      </trkpt>
      <trkpt lat="51.219135849356" lon="4.452794856308">
        <ele>0</ele>
        <time>2019-08-04T14:16:26Z</time>
      </trkpt>
      <trkpt lat="51.219443381267" lon="4.453506479618">
        <ele>0</ele>
        <time>2019-08-04T14:16:41Z</time>
      </trkpt>
      <trkpt lat="51.219463414008" lon="4.453711333254">
        <ele>0</ele>
        <time>2019-08-04T14:16:52Z</time>
      </trkpt>
      <trkpt lat="51.219474897211" lon="4.453730276348">
        <ele>0</ele>
        <time>2019-08-04T14:17:03Z</time>
      </trkpt>
      <trkpt lat="51.219416810644" lon="4.453823399257">
        <ele>0</ele>
        <time>2019-08-04T14:17:12Z</time>
      </trkpt>
      <trkpt lat="51.219400214482" lon="4.453936974002">
        <ele>0</ele>
        <time>2019-08-04T14:17:16Z</time>
      </trkpt>
      <trkpt lat="51.219590483612" lon="4.454735685253">
        <ele>0</ele>
        <time>2019-08-04T14:17:35Z</time>
      </trkpt>
      <trkpt lat="51.219709925687" lon="4.455241449099">
        <ele>0</ele>
        <time>2019-08-04T14:17:47Z</time>
      </trkpt>
      <trkpt lat="51.219739765251" lon="4.455308085204">
        <ele>0</ele>
        <time>2019-08-04T14:17:53Z</time>
      </trkpt>
      <trkpt lat="51.220201105027" lon="4.456036304676">
        <ele>0</ele>
        <time>2019-08-04T14:18:19Z</time>
      </trkpt>
      <trkpt lat="51.220431104363" lon="4.456879356178">
        <ele>0</ele>
        <time>2019-08-04T14:18:34Z</time>
      </trkpt>
      <trkpt lat="51.220414089106" lon="4.457770519786">
        <ele>0</ele>
        <time>2019-08-04T14:18:50Z</time>
      </trkpt>
      <trkpt lat="51.220342004766" lon="4.458650870743">
        <ele>0</ele>
        <time>2019-08-04T14:19:04Z</time>
      </trkpt>
      <trkpt lat="51.220437139331" lon="4.459554355744">
        <ele>4.2</ele>
        <time>2019-08-04T14:19:19Z</time>
      </trkpt>
      <trkpt lat="51.220391709433" lon="4.460441663678">
        <ele>3.6</ele>
        <time>2019-08-04T14:19:34Z</time>
      </trkpt>
      <trkpt lat="51.220315769419" lon="4.460879282677">
        <ele>12.8</ele>
        <time>2019-08-04T14:19:47Z</time>
      </trkpt>
      <trkpt lat="51.219876138764" lon="4.461683274525">
        <ele>97.6</ele>
        <time>2019-08-04T14:39:47Z</time>
      </trkpt>
      <trkpt lat="51.220042603298" lon="4.462344522616">
        <ele>25.2</ele>
        <time>2019-08-04T14:40:20Z</time>
      </trkpt>
      <trkpt lat="51.22006506679" lon="4.463238619889">
        <ele>11.6</ele>
        <time>2019-08-04T14:40:39Z</time>
      </trkpt>
      <trkpt lat="51.22015307674" lon="4.464134058266">
        <ele>3</ele>
        <time>2019-08-04T14:40:57Z</time>
      </trkpt>
      <trkpt lat="51.220126673755" lon="4.465005608228">
        <ele>0</ele>
        <time>2019-08-04T14:41:14Z</time>
      </trkpt>
      <trkpt lat="51.220043022393" lon="4.465905153736">
        <ele>0.8</ele>
        <time>2019-08-04T14:41:30Z</time>
      </trkpt>
      <trkpt lat="51.220008153689" lon="4.46678827072">
        <ele>2.8</ele>
        <time>2019-08-04T14:41:49Z</time>
      </trkpt>
      <trkpt lat="51.219992060441" lon="4.466984490999">
        <ele>2</ele>
        <time>2019-08-04T14:41:55Z</time>
      </trkpt>
      <trkpt lat="51.219985103464" lon="4.466974013624">
        <ele>2</ele>
        <time>2019-08-04T14:42:00Z</time>
      </trkpt>
      <trkpt lat="51.219978649401" lon="4.467057497348">
        <ele>2.2</ele>
        <time>2019-08-04T14:42:06Z</time>
      </trkpt>
      <trkpt lat="51.219936572263" lon="4.467937848305">
        <ele>0.6</ele>
        <time>2019-08-04T14:42:28Z</time>
      </trkpt>
      <trkpt lat="51.219937494272" lon="4.46880244129">
        <ele>0</ele>
        <time>2019-08-04T14:42:48Z</time>
      </trkpt>
      <trkpt lat="51.219819225663" lon="4.469644151688">
        <ele>0</ele>
        <time>2019-08-04T14:43:08Z</time>
      </trkpt>
      <trkpt lat="51.219664663427" lon="4.470480749127">
        <ele>0</ele>
        <time>2019-08-04T14:43:26Z</time>
      </trkpt>
      <trkpt lat="51.219544047886" lon="4.471342073171">
        <ele>0</ele>
        <time>2019-08-04T14:43:43Z</time>
      </trkpt>
      <trkpt lat="51.219329387427" lon="4.47218621432">
        <ele>0</ele>
        <time>2019-08-04T14:43:59Z</time>
      </trkpt>
      <trkpt lat="51.219185973118" lon="4.473055333531">
        <ele>0</ele>
        <time>2019-08-04T14:44:14Z</time>
      </trkpt>
      <trkpt lat="51.219056556582" lon="4.473913053358">
        <ele>0</ele>
        <time>2019-08-04T14:44:30Z</time>
      </trkpt>
      <trkpt lat="51.218926301856" lon="4.474783010759">
        <ele>0</ele>
        <time>2019-08-04T14:44:45Z</time>
      </trkpt>
      <trkpt lat="51.218827227798" lon="4.475743827956">
        <ele>0</ele>
        <time>2019-08-04T14:45:00Z</time>
      </trkpt>
      <trkpt lat="51.218722956962" lon="4.476614539728">
        <ele>0</ele>
        <time>2019-08-04T14:45:18Z</time>
      </trkpt>
      <trkpt lat="51.218787413773" lon="4.477466978958">
        <ele>0</ele>
        <time>2019-08-04T14:45:37Z</time>
      </trkpt>
      <trkpt lat="51.218936527774" lon="4.478318328541">
        <ele>0</ele>
        <time>2019-08-04T14:45:53Z</time>
      </trkpt>
      <trkpt lat="51.219362747389" lon="4.478985024867">
        <ele>15.4</ele>
        <time>2019-08-04T14:46:09Z</time>
      </trkpt>
      <trkpt lat="51.21949509759" lon="4.479826986722">
        <ele>17</ele>
        <time>2019-08-04T14:46:28Z</time>
      </trkpt>
      <trkpt lat="51.219459306877" lon="4.480465184588">
        <ele>3.6</ele>
        <time>2019-08-04T14:46:42Z</time>
      </trkpt>
      <trkpt lat="51.218967289347" lon="4.480904899062">
        <ele>0</ele>
        <time>2019-08-04T14:46:58Z</time>
      </trkpt>
      <trkpt lat="51.218406037323" lon="4.481141771556">
        <ele>0</ele>
        <time>2019-08-04T14:47:12Z</time>
      </trkpt>
      <trkpt lat="51.217855765588" lon="4.48140378975">
        <ele>0</ele>
        <time>2019-08-04T14:47:25Z</time>
      </trkpt>
      <trkpt lat="51.217326448603" lon="4.481675530948">
        <ele>0</ele>
        <time>2019-08-04T14:47:39Z</time>
      </trkpt>
      <trkpt lat="51.217043559478" lon="4.481753817894">
        <ele>0</ele>
        <time>2019-08-04T14:47:47Z</time>
      </trkpt>
      <trkpt lat="51.217001147064" lon="4.480899618465">
        <ele>0</ele>
        <time>2019-08-04T14:48:03Z</time>
      </trkpt>
      <trkpt lat="51.217060071821" lon="4.480001414061">
        <ele>0</ele>
        <time>2019-08-04T14:48:19Z</time>
      </trkpt>
      <trkpt lat="51.21709452143" lon="4.479111423919">
        <ele>0</ele>
        <time>2019-08-04T14:48:33Z</time>
      </trkpt>
      <trkpt lat="51.217165180847" lon="4.478234174265">
        <ele>0</ele>
        <time>2019-08-04T14:48:51Z</time>
      </trkpt>
      <trkpt lat="51.217205833062" lon="4.477368994547">
        <ele>0</ele>
        <time>2019-08-04T14:49:11Z</time>
      </trkpt>
      <trkpt lat="51.217213209134" lon="4.476485458468">
        <ele>0</ele>
        <time>2019-08-04T14:49:31Z</time>
      </trkpt>
      <trkpt lat="51.217246652915" lon="4.475625056433">
        <ele>0</ele>
        <time>2019-08-04T14:49:51Z</time>
      </trkpt>
      <trkpt lat="51.217280264334" lon="4.474754260842">
        <ele>0</ele>
        <time>2019-08-04T14:50:06Z</time>
      </trkpt>
      <trkpt lat="51.217288646234" lon="4.473866617632">
        <ele>0</ele>
        <time>2019-08-04T14:50:20Z</time>
      </trkpt>
      <trkpt lat="51.217302224912" lon="4.472962797355">
        <ele>0</ele>
        <time>2019-08-04T14:50:37Z</time>
      </trkpt>
      <trkpt lat="51.217379673668" lon="4.472110106668">
        <ele>0</ele>
        <time>2019-08-04T14:50:52Z</time>
      </trkpt>
      <trkpt lat="51.217425522661" lon="4.471220367983">
        <ele>0</ele>
        <time>2019-08-04T14:51:09Z</time>
      </trkpt>
      <trkpt lat="51.217463073573" lon="4.470303388123">
        <ele>0</ele>
        <time>2019-08-04T14:51:25Z</time>
      </trkpt>
      <trkpt lat="51.217509174023" lon="4.469440052423">
        <ele>0</ele>
        <time>2019-08-04T14:51:41Z</time>
      </trkpt>
      <trkpt lat="51.21746164865" lon="4.46899354861">
        <ele>0</ele>
        <time>2019-08-04T14:51:51Z</time>
      </trkpt>
      <trkpt lat="51.216986143463" lon="4.469462851191">
        <ele>0</ele>
        <time>2019-08-04T14:52:09Z</time>
      </trkpt>
      <trkpt lat="51.216457329392" lon="4.469370147377">
        <ele>0</ele>
        <time>2019-08-04T14:52:32Z</time>
      </trkpt>
      <trkpt lat="51.215989954648" lon="4.468958428449">
        <ele>0</ele>
        <time>2019-08-04T14:52:49Z</time>
      </trkpt>
      <trkpt lat="51.215903118164" lon="4.468149239823">
        <ele>0</ele>
        <time>2019-08-04T14:53:11Z</time>
      </trkpt>
      <trkpt lat="51.216407540906" lon="4.467810359606">
        <ele>0</ele>
        <time>2019-08-04T14:53:25Z</time>
      </trkpt>
      <trkpt lat="51.216935013873" lon="4.467687145676">
        <ele>0</ele>
        <time>2019-08-04T14:53:42Z</time>
      </trkpt>
      <trkpt lat="51.217391659785" lon="4.468183354156">
        <ele>0</ele>
        <time>2019-08-04T14:53:59Z</time>
      </trkpt>
      <trkpt lat="51.217540187053" lon="4.468403714307">
        <ele>0</ele>
        <time>2019-08-04T14:54:08Z</time>
      </trkpt>
      <trkpt lat="51.217539851777" lon="4.468963038494">
        <ele>0</ele>
        <time>2019-08-04T14:54:24Z</time>
      </trkpt>
      <trkpt lat="51.217568517875" lon="4.468905035746">
        <ele>0</ele>
        <time>2019-08-04T14:54:28Z</time>
      </trkpt>
      <trkpt lat="51.217605984968" lon="4.468049327575">
        <ele>0</ele>
        <time>2019-08-04T14:54:52Z</time>
      </trkpt>
      <trkpt lat="51.217640350758" lon="4.467176101233">
        <ele>0</ele>
        <time>2019-08-04T14:55:17Z</time>
      </trkpt>
      <trkpt lat="51.217646469545" lon="4.467013408554">
        <ele>0</ele>
        <time>2019-08-04T14:55:24Z</time>
      </trkpt>
      <trkpt lat="51.217672788711" lon="4.466740577709">
        <ele>3.4</ele>
        <time>2019-08-04T14:57:22Z</time>
      </trkpt>
      <trkpt lat="51.217687373217" lon="4.466649466456">
        <ele>3.2</ele>
        <time>2019-08-04T14:57:32Z</time>
      </trkpt>
      <trkpt lat="51.217691983262" lon="4.465778670865">
        <ele>0</ele>
        <time>2019-08-04T14:57:59Z</time>
      </trkpt>
      <trkpt lat="51.21772735488" lon="4.464882310479">
        <ele>0</ele>
        <time>2019-08-04T14:58:21Z</time>
      </trkpt>
      <trkpt lat="51.217761553032" lon="4.464007743033">
        <ele>0</ele>
        <time>2019-08-04T14:58:38Z</time>
      </trkpt>
      <trkpt lat="51.217821483617" lon="4.46311448395">
        <ele>0</ele>
        <time>2019-08-04T14:58:54Z</time>
      </trkpt>
      <trkpt lat="51.217851742276" lon="4.462228098025">
        <ele>0</ele>
        <time>2019-08-04T14:59:09Z</time>
      </trkpt>
      <trkpt lat="51.217843611833" lon="4.461368617999">
        <ele>0</ele>
        <time>2019-08-04T14:59:25Z</time>
      </trkpt>
      <trkpt lat="51.217825087834" lon="4.461100900113">
        <ele>0</ele>
        <time>2019-08-04T14:59:32Z</time>
      </trkpt>
      <trkpt lat="51.217359138013" lon="4.460621120157">
        <ele>0</ele>
        <time>2019-08-04T14:59:54Z</time>
      </trkpt>
      <trkpt lat="51.216903497929" lon="4.460162797865">
        <ele>0</ele>
        <time>2019-08-04T15:00:11Z</time>
      </trkpt>
      <trkpt lat="51.216416928634" lon="4.460710806487">
        <ele>0</ele>
        <time>2019-08-04T15:00:32Z</time>
      </trkpt>
      <trkpt lat="51.216045442826" lon="4.461379179193">
        <ele>0</ele>
        <time>2019-08-04T15:00:48Z</time>
      </trkpt>
      <trkpt lat="51.21568300947" lon="4.462053503048">
        <ele>0</ele>
        <time>2019-08-04T15:01:03Z</time>
      </trkpt>
      <trkpt lat="51.215526435578" lon="4.46229641051">
        <ele>0</ele>
        <time>2019-08-04T15:01:11Z</time>
      </trkpt>
      <trkpt lat="51.21516500805" lon="4.4616518424">
        <ele>0</ele>
        <time>2019-08-04T15:01:28Z</time>
      </trkpt>
      <trkpt lat="51.214832498077" lon="4.46096704117">
        <ele>0</ele>
        <time>2019-08-04T15:01:50Z</time>
      </trkpt>
      <trkpt lat="51.214517338637" lon="4.46025625605">
        <ele>0</ele>
        <time>2019-08-04T15:02:06Z</time>
      </trkpt>
      <trkpt lat="51.214386161902" lon="4.460075039372">
        <ele>0</ele>
        <time>2019-08-04T15:02:13Z</time>
      </trkpt>
      <trkpt lat="51.213896072209" lon="4.460523135746">
        <ele>0</ele>
        <time>2019-08-04T15:02:32Z</time>
      </trkpt>
      <trkpt lat="51.213437582279" lon="4.460993695612">
        <ele>0</ele>
        <time>2019-08-04T15:02:47Z</time>
      </trkpt>
      <trkpt lat="51.212987474249" lon="4.461524772796">
        <ele>0</ele>
        <time>2019-08-04T15:03:01Z</time>
      </trkpt>
      <trkpt lat="51.212530995975" lon="4.462070183029">
        <ele>0</ele>
        <time>2019-08-04T15:03:18Z</time>
      </trkpt>
      <trkpt lat="51.212161186547" lon="4.462760851589">
        <ele>0</ele>
        <time>2019-08-04T15:03:36Z</time>
      </trkpt>
      <trkpt lat="51.211823563615" lon="4.463481108256">
        <ele>0</ele>
        <time>2019-08-04T15:03:52Z</time>
      </trkpt>
      <trkpt lat="51.211685597541" lon="4.463891150804">
        <ele>0</ele>
        <time>2019-08-04T15:04:05Z</time>
      </trkpt>
      <trkpt lat="51.211472026729" lon="4.464718528153">
        <ele>0</ele>
        <time>2019-08-04T15:04:22Z</time>
      </trkpt>
      <trkpt lat="51.211436571292" lon="4.465587898821">
        <ele>0</ele>
        <time>2019-08-04T15:04:40Z</time>
      </trkpt>
      <trkpt lat="51.211493568212" lon="4.465707927629">
        <ele>0</ele>
        <time>2019-08-04T15:04:44Z</time>
      </trkpt>
      <trkpt lat="51.211976030376" lon="4.465499469776">
        <ele>0</ele>
        <time>2019-08-04T15:05:07Z</time>
      </trkpt>
      <trkpt lat="51.212505347361" lon="4.465299729099">
        <ele>0</ele>
        <time>2019-08-04T15:05:25Z</time>
      </trkpt>
      <trkpt lat="51.213040028762" lon="4.46533904021">
        <ele>0</ele>
        <time>2019-08-04T15:05:41Z</time>
      </trkpt>
      <trkpt lat="51.213363402464" lon="4.465478431207">
        <ele>0</ele>
        <time>2019-08-04T15:05:51Z</time>
      </trkpt>
      <trkpt lat="51.213312691969" lon="4.466380323647">
        <ele>0</ele>
        <time>2019-08-04T15:06:07Z</time>
      </trkpt>
      <trkpt lat="51.213419309737" lon="4.467243910804">
        <ele>0</ele>
        <time>2019-08-04T15:06:26Z</time>
      </trkpt>
      <trkpt lat="51.213713765884" lon="4.467981937099">
        <ele>0</ele>
        <time>2019-08-04T15:06:50Z</time>
      </trkpt>
      <trkpt lat="51.214191366546" lon="4.468335820917">
        <ele>0</ele>
        <time>2019-08-04T15:07:10Z</time>
      </trkpt>
      <trkpt lat="51.214644659698" lon="4.468234232289">
        <ele>0</ele>
        <time>2019-08-04T15:07:28Z</time>
      </trkpt>
      <trkpt lat="51.2146914307" lon="4.468275555056">
        <ele>0</ele>
        <time>2019-08-04T15:07:30Z</time>
      </trkpt>
      <trkpt lat="51.214467382513" lon="4.469026405658">
        <ele>0</ele>
        <time>2019-08-04T15:07:47Z</time>
      </trkpt>
      <trkpt lat="51.214410469412" lon="4.46990382295">
        <ele>0</ele>
        <time>2019-08-04T15:08:03Z</time>
      </trkpt>
      <trkpt lat="51.214263869981" lon="4.470676047397">
        <ele>0</ele>
        <time>2019-08-04T15:08:22Z</time>
      </trkpt>
      <trkpt lat="51.214393370336" lon="4.471448942396">
        <ele>0</ele>
        <time>2019-08-04T15:08:40Z</time>
      </trkpt>
      <trkpt lat="51.214458916794" lon="4.47230272273">
        <ele>0</ele>
        <time>2019-08-04T15:08:58Z</time>
      </trkpt>
      <trkpt lat="51.21492696209" lon="4.472742521023">
        <ele>0</ele>
        <time>2019-08-04T15:09:17Z</time>
      </trkpt>
      <trkpt lat="51.215214209803" lon="4.473491443788">
        <ele>0</ele>
        <time>2019-08-04T15:09:33Z</time>
      </trkpt>
      <trkpt lat="51.215124942568" lon="4.474344637389">
        <ele>0</ele>
        <time>2019-08-04T15:09:49Z</time>
      </trkpt>
      <trkpt lat="51.215239690779" lon="4.475202189578">
        <ele>0</ele>
        <time>2019-08-04T15:10:08Z</time>
      </trkpt>
      <trkpt lat="51.214982701725" lon="4.475710216537">
        <ele>0</ele>
        <time>2019-08-04T15:10:33Z</time>
      </trkpt>
      <trkpt lat="51.214815399001" lon="4.475896546174">
        <ele>0</ele>
        <time>2019-08-04T15:10:53Z</time>
      </trkpt>
      <trkpt lat="51.214786732903" lon="4.475905095712">
        <ele>0</ele>
        <time>2019-08-04T15:15:51Z</time>
      </trkpt>
      <trkpt lat="51.214748259982" lon="4.475957901682">
        <ele>0</ele>
        <time>2019-08-04T15:15:57Z</time>
      </trkpt>
      <trkpt lat="51.214282896894" lon="4.476337182657">
        <ele>0</ele>
        <time>2019-08-04T15:16:22Z</time>
      </trkpt>
      <trkpt lat="51.21433352357" lon="4.477175205019">
        <ele>0</ele>
        <time>2019-08-04T15:16:42Z</time>
      </trkpt>
      <trkpt lat="51.214669218665" lon="4.477862353181">
        <ele>0</ele>
        <time>2019-08-04T15:16:58Z</time>
      </trkpt>
      <trkpt lat="51.214966943753" lon="4.478593506318">
        <ele>0</ele>
        <time>2019-08-04T15:17:19Z</time>
      </trkpt>
      <trkpt lat="51.215475641264" lon="4.47880456256">
        <ele>0</ele>
        <time>2019-08-04T15:17:33Z</time>
      </trkpt>
      <trkpt lat="51.215849054909" lon="4.478146415772">
        <ele>0</ele>
        <time>2019-08-04T15:17:50Z</time>
      </trkpt>
      <trkpt lat="51.21626219876" lon="4.477604358299">
        <ele>0</ele>
        <time>2019-08-04T15:18:05Z</time>
      </trkpt>
      <trkpt lat="51.216815152703" lon="4.477600334987">
        <ele>0</ele>
        <time>2019-08-04T15:18:21Z</time>
      </trkpt>
      <trkpt lat="51.217208599089" lon="4.477155172278">
        <ele>0</ele>
        <time>2019-08-04T15:18:40Z</time>
      </trkpt>
      <trkpt lat="51.217231062581" lon="4.476283203221">
        <ele>0</ele>
        <time>2019-08-04T15:19:00Z</time>
      </trkpt>
      <trkpt lat="51.217235253531" lon="4.475406205024">
        <ele>0</ele>
        <time>2019-08-04T15:19:28Z</time>
      </trkpt>
      <trkpt lat="51.217242461965" lon="4.474521495479">
        <ele>0</ele>
        <time>2019-08-04T15:19:43Z</time>
      </trkpt>
      <trkpt lat="51.217285377293" lon="4.473629409862">
        <ele>0</ele>
        <time>2019-08-04T15:19:58Z</time>
      </trkpt>
      <trkpt lat="51.217329466087" lon="4.472737910978">
        <ele>0</ele>
        <time>2019-08-04T15:20:11Z</time>
      </trkpt>
      <trkpt lat="51.217393503803" lon="4.471880358789">
        <ele>0</ele>
        <time>2019-08-04T15:20:27Z</time>
      </trkpt>
      <trkpt lat="51.217391995061" lon="4.471237299421">
        <ele>0</ele>
        <time>2019-08-04T15:20:37Z</time>
      </trkpt>
      <trkpt lat="51.217467851256" lon="4.470746958271">
        <ele>0</ele>
        <time>2019-08-04T15:20:46Z</time>
      </trkpt>
      <trkpt lat="51.217892310672" lon="4.471294631617">
        <ele>0</ele>
        <time>2019-08-04T15:21:04Z</time>
      </trkpt>
      <trkpt lat="51.218102612543" lon="4.471563942064">
        <ele>0</ele>
        <time>2019-08-04T15:21:13Z</time>
      </trkpt>
      <trkpt lat="51.218485833011" lon="4.470920295963">
        <ele>0</ele>
        <time>2019-08-04T15:21:33Z</time>
      </trkpt>
      <trkpt lat="51.218776601122" lon="4.470176821433">
        <ele>0</ele>
        <time>2019-08-04T15:21:54Z</time>
      </trkpt>
      <trkpt lat="51.219012551607" lon="4.46938665972">
        <ele>0</ele>
        <time>2019-08-04T15:22:11Z</time>
      </trkpt>
      <trkpt lat="51.219203072194" lon="4.469080888008">
        <ele>0</ele>
        <time>2019-08-04T15:22:18Z</time>
      </trkpt>
      <trkpt lat="51.219194355018" lon="4.46898097576">
        <ele>0</ele>
        <time>2019-08-04T15:22:20Z</time>
      </trkpt>
      <trkpt lat="51.218656739952" lon="4.468771931174">
        <ele>0</ele>
        <time>2019-08-04T15:22:43Z</time>
      </trkpt>
      <trkpt lat="51.218204620266" lon="4.468296928901">
        <ele>0</ele>
        <time>2019-08-04T15:23:06Z</time>
      </trkpt>
      <trkpt lat="51.21776004429" lon="4.468167344727">
        <ele>0</ele>
        <time>2019-08-04T15:23:29Z</time>
      </trkpt>
      <trkpt lat="51.217300464713" lon="4.468042789693">
        <ele>0</ele>
        <time>2019-08-04T15:23:50Z</time>
      </trkpt>
      <trkpt lat="51.216887069405" lon="4.467491009216">
        <ele>0</ele>
        <time>2019-08-04T15:24:12Z</time>
      </trkpt>
      <trkpt lat="51.21646923169" lon="4.466877873231">
        <ele>0</ele>
        <time>2019-08-04T15:24:33Z</time>
      </trkpt>
      <trkpt lat="51.216021973506" lon="4.466324081098">
        <ele>0</ele>
        <time>2019-08-04T15:24:48Z</time>
      </trkpt>
      <trkpt lat="51.215913092625" lon="4.466161472238">
        <ele>0</ele>
        <time>2019-08-04T15:24:52Z</time>
      </trkpt>
      <trkpt lat="51.215892137875" lon="4.465908003582">
        <ele>0</ele>
        <time>2019-08-04T15:24:55Z</time>
      </trkpt>
      <trkpt lat="51.216040581324" lon="4.465187663096">
        <ele>0</ele>
        <time>2019-08-04T15:25:12Z</time>
      </trkpt>
      <trkpt lat="51.215888952753" lon="4.464365817801">
        <ele>0</ele>
        <time>2019-08-04T15:25:28Z</time>
      </trkpt>
      <trkpt lat="51.215850898927" lon="4.464189127349">
        <ele>0</ele>
        <time>2019-08-04T15:25:32Z</time>
      </trkpt>
      <trkpt lat="51.216363452112" lon="4.464014448553">
        <ele>0</ele>
        <time>2019-08-04T15:25:52Z</time>
      </trkpt>
      <trkpt lat="51.216885141568" lon="4.464235479256">
        <ele>0</ele>
        <time>2019-08-04T15:26:13Z</time>
      </trkpt>
      <trkpt lat="51.217174903851" lon="4.464985575487">
        <ele>0</ele>
        <time>2019-08-04T15:26:30Z</time>
      </trkpt>
      <trkpt lat="51.217533565352" lon="4.465611535779">
        <ele>0</ele>
        <time>2019-08-04T15:26:46Z</time>
      </trkpt>
      <trkpt lat="51.217601291104" lon="4.465705915973">
        <ele>0</ele>
        <time>2019-08-04T15:26:50Z</time>
      </trkpt>
      <trkpt lat="51.217618641637" lon="4.46568688906">
        <ele>0</ele>
        <time>2019-08-04T15:26:52Z</time>
      </trkpt>
      <trkpt lat="51.217750991838" lon="4.46438015085">
        <ele>0</ele>
        <time>2019-08-04T15:27:25Z</time>
      </trkpt>
      <trkpt lat="51.217779238841" lon="4.463522431023">
        <ele>0</ele>
        <time>2019-08-04T15:27:41Z</time>
      </trkpt>
      <trkpt lat="51.217836151942" lon="4.462666722852">
        <ele>0</ele>
        <time>2019-08-04T15:27:56Z</time>
      </trkpt>
      <trkpt lat="51.217860375633" lon="4.461762902575">
        <ele>0</ele>
        <time>2019-08-04T15:28:10Z</time>
      </trkpt>
      <trkpt lat="51.217908571558" lon="4.460901410893">
        <ele>0</ele>
        <time>2019-08-04T15:28:31Z</time>
      </trkpt>
      <trkpt lat="51.217968418324" lon="4.460015024968">
        <ele>0</ele>
        <time>2019-08-04T15:28:49Z</time>
      </trkpt>
      <trkpt lat="51.218020469923" lon="4.459146324852">
        <ele>0</ele>
        <time>2019-08-04T15:29:08Z</time>
      </trkpt>
      <trkpt lat="51.218028432728" lon="4.458268572284">
        <ele>0</ele>
        <time>2019-08-04T15:29:25Z</time>
      </trkpt>
      <trkpt lat="51.218055338627" lon="4.45740305729">
        <ele>0</ele>
        <time>2019-08-04T15:29:38Z</time>
      </trkpt>
      <trkpt lat="51.218496478024" lon="4.456802829431">
        <ele>0</ele>
        <time>2019-08-04T15:29:55Z</time>
      </trkpt>
      <trkpt lat="51.218993608513" lon="4.456442156274">
        <ele>0</ele>
        <time>2019-08-04T15:30:11Z</time>
      </trkpt>
      <trkpt lat="51.2194942594" lon="4.456047117327">
        <ele>0</ele>
        <time>2019-08-04T15:30:29Z</time>
      </trkpt>
      <trkpt lat="51.219933554779" lon="4.455512603564">
        <ele>0</ele>
        <time>2019-08-04T15:30:50Z</time>
      </trkpt>
      <trkpt lat="51.219631890198" lon="4.454789999965">
        <ele>0</ele>
        <time>2019-08-04T15:31:05Z</time>
      </trkpt>
      <trkpt lat="51.219412284418" lon="4.453979134959">
        <ele>0</ele>
        <time>2019-08-04T15:31:25Z</time>
      </trkpt>
      <trkpt lat="51.219381774302" lon="4.453872684829">
        <ele>0</ele>
        <time>2019-08-04T15:31:46Z</time>
      </trkpt>
      <trkpt lat="51.219446231113" lon="4.453830523872">
        <ele>0</ele>
        <time>2019-08-04T15:32:06Z</time>
      </trkpt>
      <trkpt lat="51.219460815619" lon="4.453825746189">
        <ele>0</ele>
        <time>2019-08-04T15:32:07Z</time>
      </trkpt>
      <trkpt lat="51.219494510857" lon="4.453710411245">
        <ele>0</ele>
        <time>2019-08-04T15:32:12Z</time>
      </trkpt>
      <trkpt lat="51.219215477406" lon="4.452975402434">
        <ele>0</ele>
        <time>2019-08-04T15:32:28Z</time>
      </trkpt>
      <trkpt lat="51.219084719766" lon="4.452171997319">
        <ele>0</ele>
        <time>2019-08-04T15:32:45Z</time>
      </trkpt>
      <trkpt lat="51.219170801879" lon="4.452104690662">
        <ele>0</ele>
        <time>2019-08-04T15:32:47Z</time>
      </trkpt>
      <trkpt lat="51.219721827985" lon="4.452006370975">
        <ele>0</ele>
        <time>2019-08-04T15:33:03Z</time>
      </trkpt>
      <trkpt lat="51.220271680625" lon="4.451934454273">
        <ele>0</ele>
        <time>2019-08-04T15:33:22Z</time>
      </trkpt>
      <trkpt lat="51.220826394767" lon="4.451796488199">
        <ele>0</ele>
        <time>2019-08-04T15:33:36Z</time>
      </trkpt>
      <trkpt lat="51.221386724782" lon="4.451569338709">
        <ele>0</ele>
        <time>2019-08-04T15:33:52Z</time>
      </trkpt>
      <trkpt lat="51.221957029258" lon="4.451345122884">
        <ele>0</ele>
        <time>2019-08-04T15:34:02Z</time>
      </trkpt>
      <trkpt lat="51.22201050578" lon="4.451318216985">
        <ele>0</ele>
        <time>2019-08-04T15:34:03Z</time>
      </trkpt>
      <trkpt lat="51.222392217506" lon="4.451152590641">
        <ele>0</ele>
        <time>2019-08-04T15:34:12Z</time>
      </trkpt>
      <trkpt lat="51.22295849867" lon="4.451092157142">
        <ele>0</ele>
        <time>2019-08-04T15:34:26Z</time>
      </trkpt>
      <trkpt lat="51.22308506536" lon="4.451145549845">
        <ele>0</ele>
        <time>2019-08-04T15:34:29Z</time>
      </trkpt>
      <trkpt lat="51.22362905067" lon="4.45130354866">
        <ele>0</ele>
        <time>2019-08-04T15:34:41Z</time>
      </trkpt>
      <trkpt lat="51.22401545626" lon="4.451360377942">
        <ele>0</ele>
        <time>2019-08-04T15:34:50Z</time>
      </trkpt>
      <trkpt lat="51.224111177558" lon="4.451312684931">
        <ele>0</ele>
        <time>2019-08-04T15:34:52Z</time>
      </trkpt>
      <trkpt lat="51.224302703973" lon="4.451102466879">
        <ele>0</ele>
        <time>2019-08-04T15:34:57Z</time>
      </trkpt>
      <trkpt lat="51.224685002432" lon="4.45045865314">
        <ele>0</ele>
        <time>2019-08-04T15:35:10Z</time>
      </trkpt>
      <trkpt lat="51.225096469903" lon="4.449851133028">
        <ele>0</ele>
        <time>2019-08-04T15:35:25Z</time>
      </trkpt>
      <trkpt lat="51.225624445784" lon="4.449706964348">
        <ele>0</ele>
        <time>2019-08-04T15:35:41Z</time>
      </trkpt>
      <trkpt lat="51.226100453885" lon="4.449328186287">
        <ele>0</ele>
        <time>2019-08-04T15:35:54Z</time>
      </trkpt>
      <trkpt lat="51.226242107995" lon="4.449036831443">
        <ele>0</ele>
        <time>2019-08-04T15:35:59Z</time>
      </trkpt>
      <trkpt lat="51.226372278902" lon="4.448878329714">
        <ele>0</ele>
        <time>2019-08-04T15:36:04Z</time>
      </trkpt>
      <trkpt lat="51.22667168037" lon="4.449269093892">
        <ele>0</ele>
        <time>2019-08-04T15:36:15Z</time>
      </trkpt>
      <trkpt lat="51.22702036741" lon="4.448704070013">
        <ele>0</ele>
        <time>2019-08-04T15:36:32Z</time>
      </trkpt>
      <trkpt lat="51.227121034029" lon="4.449052673234">
        <ele>0</ele>
        <time>2019-08-04T15:36:41Z</time>
      </trkpt>
      <trkpt lat="51.227161602425" lon="4.449012104838">
        <ele>0</ele>
        <time>2019-08-04T15:36:44Z</time>
      </trkpt>
      <trkpt lat="51.227558988304" lon="4.448406596382">
        <ele>0</ele>
        <time>2019-08-04T15:37:01Z</time>
      </trkpt>
      <trkpt lat="51.227971042508" lon="4.447802009935">
        <ele>0</ele>
        <time>2019-08-04T15:37:16Z</time>
      </trkpt>
      <trkpt lat="51.228336996262" lon="4.447232627468">
        <ele>0</ele>
        <time>2019-08-04T15:37:31Z</time>
      </trkpt>
      <trkpt lat="51.228713343572" lon="4.447844589987">
        <ele>0</ele>
        <time>2019-08-04T15:37:45Z</time>
      </trkpt>
      <trkpt lat="51.229042165509" lon="4.448356640258">
        <ele>0</ele>
        <time>2019-08-04T15:38:01Z</time>
      </trkpt>
      <trkpt lat="51.229021546035" lon="4.448510531942">
        <ele>0</ele>
        <time>2019-08-04T15:38:07Z</time>
      </trkpt>
    </trkseg>
  </trk>
</gpx>